Decoded Metar for OIBK (KISH ISLAND in IRAN) (IATA:KIH) | Meteo·Mobile Aviation Weather
aviador You're here:

OIBK Decoded Metar

KISH ISLAND in IRAN
Report Time2018-12-10 11:00:00
UTC Time2018-12-10 11:17:22
Flight Rules vfr VFR
Wind280° at 14 kt
W.Decomp.*RWY 27: 13.8 kt HW 2.2 kt RCW
W.Rank280° ranks 3
Current wind is above 280° avg. (8.9)
Visibility9999 m
Phenomena:N/A
Clouds:N/A
Expected CloudBase > 4,400 ft AGL from Temp-Dew spread
CeilingNone
Temp26°C (ISA +11)
Dew Point15°C (51% RH)
AAT22.6°C
QNH1012 hPa
Density Alt1,654 ft
Elevation98 ft
Report Wrong Elevation
Raw Report
METAR OIBK 101100Z 28014KT CAVOK 26/15 Q1012=

Extra information for OIBK:More info

Metar Taf Metar & Taf Last 4 Metars F.Rules Stats Wind Profile Meteogram Temp Stats Airport Information Weather charts Add Link Nearby VenuesMetar ALERT Operation Metar Decoded Social comments